Data for 10/30/2013

Time Sea-Level Adjusted Pressure Absolute Pressure Temperature Relative Humidity Dew Point   
(mb) (inHg) (mb) (inHg) (C) (F) (%) (C) (F)
00:05 1013 29.91 842 24.86 -3 26.6 78 -6.3 20.7
00:10 1013 29.91 842 24.86 -2.9 26.7 77 -6.4 20.5
00:15 1013 29.91 842 24.86 -2.9 26.8 77 -6.4 20.5
00:20 1013 29.91 842 24.86 -2.8 26.9 77 -6.3 20.6
00:25 1013 29.91 842 24.86 -2.7 27.2 76 -6.3 20.6
00:30 1013 29.91 842 24.86 -2.7 27.2 76 -6.3 20.7
00:35 1013 29.91 842 24.86 -2.7 27.2 76 -6.3 20.7
00:40 1013 29.91 842 24.86 -2.6 27.4 75 -6.3 20.6
00:45 1013 29.91 842 24.86 -2.6 27.4 76 -6.2 20.9
00:50 1013 29.91 842 24.86 -2.6 27.3 76 -6.2 20.8
00:55 1013 29.91 842 24.86 -2.5 27.5 76 -6.2 20.9
01:00 1013 29.91 842 24.86 -2.4 27.6 76 -6.1 20.9
01:05 1013 29.91 842 24.86 -2.4 27.6 76 -6.1 21
01:10 1013 29.91 842 24.86 -2.5 27.5 77 -6 21.2
01:15 1013 29.91 842 24.86 -2.5 27.5 77 -6 21.3
01:20 1013 29.91 842 24.86 -2.4 27.7 77 -5.8 21.5
01:25 1013 29.91 842 24.86 -2.3 27.9 77 -5.8 21.6
01:30 1013 29.91 842 24.86 -2.2 28 77 -5.8 21.6
01:35 1013 29.91 842 24.86 -2.3 27.9 77 -5.8 21.6
01:40 1013 29.91 842 24.86 -2.4 27.7 78 -5.8 21.6
01:45 1013 29.91 842 24.86 -2.4 27.6 77 -5.9 21.4
01:50 1013 29.91 842 24.86 -2.4 27.6 77 -5.9 21.4
01:55 1013 29.91 842 24.86 -2.3 27.9 76 -5.9 21.4
02:00 1013 29.91 842 24.86 -2.2 28.1 76 -5.9 21.3
02:05 1013 29.91 842 24.86 -2.1 28.2 75 -6 21.2
02:10 1013 29.91 842 24.86 -2 28.4 74 -6 21.2
02:15 1013 29.91 842 24.86 -2 28.5 74 -6 21.2
02:20 1013 29.91 842 24.86 -1.8 28.7 73 -6 21.1
02:25 1013 29.91 842 24.86 -1.7 28.9 71 -6.3 20.7
02:30 1013 29.91 842 24.86 -1.6 29.1 71 -6.2 20.8
02:35 1013 29.91 842 24.86 -1.6 29.1 71 -6.2 20.9
02:40 1013 29.91 842 24.86 -1.5 29.2 71 -6.2 20.8
02:45 1013 29.91 842 24.86 -1.6 29.2 70 -6.3 20.7
02:50 1013 29.91 842 24.86 -1.6 29.1 71 -6.2 20.8
02:55 1013 29.91 842 24.86 -1.7 29 71 -6.3 20.7
03:00 1013 29.91 842 24.86 -1.7 28.9 72 -6.2 20.9
03:05 1013 29.91 842 24.86 -1.7 29 72 -6 21.1
03:10 1013 29.91 842 24.86 -1.7 28.9 74 -5.9 21.5
03:15 1013 29.91 842 24.86 -1.9 28.7 74 -5.8 21.5
03:20 1013 29.91 842 24.86 -1.9 28.5 74 -5.9 21.4
03:25 1013 29.91 842 24.86 -2.1 28.3 76 -5.8 21.6
03:30 1013 29.91 842 24.86 -2.1 28.2 76 -5.8 21.5
03:35 1013 29.91 842 24.86 -2 28.4 76 -5.7 21.7
03:40 1013 29.91 842 24.86 -2 28.5 76 -5.6 22
03:45 1013 29.91 842 24.86 -1.9 28.6 77 -5.4 22.2
03:50 1013 29.91 842 24.86 -1.9 28.7 78 -5.2 22.7
03:55 1013 29.91 842 24.86 -1.7 28.9 79 -5 23.1
04:00 1013 29.91 842 24.86 -1.6 29.1 79 -4.8 23.4
04:05 1013 29.91 842 24.86 -1.4 29.5 78 -4.7 23.5
04:10 1013 29.91 842 24.86 -1.2 29.8 77 -4.8 23.4
04:15 1013 29.91 842 24.86 -1.1 30 74 -5.1 22.8
04:20 1013 29.91 842 24.86 -1.3 29.7 75 -5.1 22.8
04:25 1013 29.91 842 24.86 -1.3 29.7 76 -5.1 22.9
04:30 1013 29.91 842 24.86 -1.4 29.5 75 -5.2 22.6
04:35 1013 29.91 842 24.86 -1.5 29.3 75 -5.3 22.5
04:40 1013 29.91 842 24.86 -1.6 29.1 76 -5.3 22.4
04:45 1013 29.91 842 24.86 -1.8 28.8 77 -5.3 22.5
04:50 1013 29.91 842 24.86 -1.8 28.8 77 -5.4 22.3
04:55 1013 29.91 842 24.86 -1.7 29 76 -5.4 22.3
05:00 1013 29.91 842 24.86 -1.6 29.1 75 -5.4 22.3
05:05 1013 29.91 842 24.86 -1.6 29.1 76 -5.3 22.4
05:10 1013 29.91 842 24.86 -1.6 29.2 76 -5.3 22.5
05:15 1013 29.91 842 24.86 -1.6 29.2 76 -5.3 22.5
05:20 1013 29.91 842 24.86 -1.6 29 76 -5.4 22.3
05:25 1013 29.91 842 24.86 -1.7 29 76 -5.3 22.5
05:30 1013 29.91 842 24.86 -1.6 29.2 76 -5.3 22.4
05:35 1013 29.91 842 24.86 -1.5 29.3 75 -5.4 22.4
05:40 1013 29.91 842 24.86 -1.5 29.3 75 -5.4 22.3
05:45 1013 29.91 842 24.86 -1.5 29.3 75 -5.4 22.4
05:50 1013 29.91 842 24.86 -1.5 29.3 75 -5.3 22.5
05:55 1013 29.91 842 24.86 -1.5 29.3 76 -5.3 22.5
06:00 1013 29.91 842 24.86 -1.5 29.4 76 -5.2 22.7
06:05 1013 29.91 842 24.86 -1.4 29.4 75 -5.3 22.5
06:10 1013 29.91 842 24.86 -1.5 29.3 75 -5.3 22.5
06:15 1013 29.91 842 24.86 -1.5 29.4 76 -5.2 22.6
06:20 1013 29.91 842 24.86 -1.4 29.5 75 -5.2 22.7
06:25 1013 29.91 842 24.86 -1.4 29.5 76 -5.2 22.7
06:30 1013 29.91 842 24.86 -1.5 29.3 77 -5.1 22.9
06:35 1013 29.91 842 24.86 -1.5 29.4 77 -5 22.9
06:40 1013 29.91 842 24.86 -1.3 29.6 77 -4.9 23.1
06:45 1013 29.91 842 24.86 -1.2 29.9 76 -4.8 23.3
06:50 1013 29.91 842 24.86 -1.1 30 75 -4.9 23.2
06:55 1013 29.91 842 24.86 -1.1 30 75 -5 22.9
07:00 1013 29.91 843 24.89 -1.1 29.9 75 -5 23
07:05 1013 29.91 843 24.89 -1.1 30 76 -4.8 23.4
07:10 1013 29.91 843 24.89 -1 30.3 77 -4.6 23.8
07:15 1013 29.91 843 24.89 -0.9 30.4 75 -4.8 23.3
07:20 1014 29.94 843 24.89 -1 30.2 75 -4.9 23.1
07:25 1014 29.94 843 24.89 -1.1 30 75 -5 23
07:30 1014 29.94 843 24.89 -0.8 30.6 73 -5 23
07:35 1014 29.94 843 24.89 -0.6 30.9 74 -4.7 23.5
07:40 1014 29.94 843 24.89 -0.7 30.8 74 -4.8 23.4
07:45 1014 29.94 843 24.89 -0.8 30.6 74 -4.8 23.3
07:50 1014 29.94 843 24.89 -0.8 30.6 74 -4.8 23.3
07:55 1014 29.94 843 24.89 -0.7 30.7 75 -4.7 23.6
08:00 1014 29.94 843 24.89 -0.8 30.6 75 -4.7 23.6
08:05 1014 29.94 843 24.89 -0.7 30.7 75 -4.7 23.6
08:10 1014 29.94 843 24.89 -0.6 31 74 -4.6 23.7
08:15 1014 29.94 843 24.89 -0.4 31.3 74 -4.5 23.9
08:20 1014 29.94 843 24.89 -0.4 31.4 74 -4.4 24
08:25 1014 29.94 843 24.89 -0.3 31.4 74 -4.4 24.1
08:30 1014 29.94 843 24.89 -0.3 31.5 74 -4.3 24.2
08:35 1014 29.94 843 24.89 -0 31.9 74 -4.1 24.6
08:40 1014 29.94 843 24.89 0.2 32.4 73 -4.1 24.6
08:45 1014 29.94 843 24.89 0.3 32.5 73 -4 24.8
08:50 1014 29.94 843 24.89 0.4 32.7 73 -3.8 25.1
08:55 1014 29.94 843 24.89 0.7 33.3 72 -3.8 25.2
09:00 1014 29.94 843 24.89 0.9 33.7 71 -3.7 25.4
09:05 1014 29.94 843 24.89 1.1 34 72 -3.5 25.7
09:10 1014 29.94 844 24.92 1 33.8 73 -3.4 25.9
09:15 1014 29.94 844 24.92 1.2 34.1 69 -3.8 25.1
09:20 1014 29.94 844 24.92 1.5 34.7 69 -3.6 25.5
09:25 1014 29.94 844 24.92 1.9 35.4 67 -3.6 25.6
09:30 1014 29.94 844 24.92 2 35.7 64 -4.1 24.7
09:35 1015 29.97 844 24.92 2.1 35.8 63 -4.3 24.3
09:40 1015 29.97 844 24.92 2.2 35.9 62 -4.3 24.2
09:45 1015 29.97 844 24.92 2.2 36 61 -4.4 24
09:50 1015 29.97 844 24.92 2.2 36 62 -4.3 24.2
09:55 1015 29.97 844 24.92 2.3 36.1 61 -4.6 23.8
10:00 1015 29.97 844 24.92 2.3 36.2 61 -4.5 24
10:05 1015 29.97 844 24.92 2.4 36.3 61 -4.5 24
10:10 1015 29.97 844 24.92 2.3 36.2 61 -4.5 23.9
10:15 1015 29.97 844 24.92 2.4 36.3 61 -4.5 24
10:20 1015 29.97 844 24.92 2.4 36.4 61 -4.3 24.2
10:25 1015 29.97 844 24.92 2.6 36.7 60 -4.3 24.2
10:30 1015 29.97 844 24.92 2.8 37 61 -4.1 24.6
10:35 1015 29.97 844 24.92 2.6 36.8 61 -4.2 24.4
10:40 1015 29.97 844 24.92 2.7 36.8 60 -4.4 24.2
10:45 1015 29.97 844 24.92 2.8 37.1 59 -4.4 24.1
10:50 1015 29.97 844 24.92 3 37.4 58 -4.4 24.1
10:55 1015 29.97 844 24.92 3 37.5 58 -4.5 23.9
11:00 1015 29.97 844 24.92 3.2 37.7 57 -4.5 24
11:05 1015 29.97 844 24.92 3.4 38.1 57 -4.3 24.2
11:10 1015 29.97 844 24.92 3.7 38.7 55 -4.5 23.9
11:15 1015 29.97 844 24.92 4.5 40 52 -4.6 23.7
11:20 1015 29.97 844 24.92 4.8 40.6 51 -4.5 23.8
11:25 1015 29.97 844 24.92 5 41 51 -4.4 24.1
11:30 1015 29.97 844 24.92 5 41 50 -4.6 23.7
11:35 1015 29.97 844 24.92 5.6 42 48 -4.5 24
11:40 1014 29.94 844 24.92 6 42.8 46 -4.8 23.4
11:45 1014 29.94 844 24.92 6.5 43.6 46 -4.4 24
11:50 1014 29.94 844 24.92 6.3 43.4 46 -4.4 24.1
11:55 1014 29.94 844 24.92 6.4 43.6 45 -4.7 23.6
12:00 1014 29.94 844 24.92 7.1 44.8 43 -4.5 23.9
12:05 1014 29.94 844 24.92 6.7 44 45 -4.5 24
12:10 1014 29.94 844 24.92 6.7 44.1 46 -4.1 24.6
12:15 1014 29.94 843 24.89 6.9 44.4 43 -4.9 23.2
12:20 1014 29.94 843 24.89 7.2 45 42 -4.8 23.3
12:25 1014 29.94 843 24.89 7 44.6 43 -4.8 23.4
12:30 1014 29.94 843 24.89 7 44.6 43 -4.8 23.3
12:35 1014 29.94 843 24.89 7.6 45.8 41 -4.7 23.5
12:40 1014 29.94 843 24.89 7.3 45.1 43 -4.5 23.8
12:45 1014 29.94 843 24.89 6.5 43.7 44 -4.7 23.5
12:50 1014 29.94 843 24.89 6.5 43.7 44 -4.8 23.3
12:55 1014 29.94 843 24.89 6.5 43.6 44 -5 23.1
13:00 1014 29.94 843 24.89 6.7 44.1 42 -5.2 22.6
13:05 1014 29.94 843 24.89 7.1 44.8 42 -5 23
13:10 1014 29.94 843 24.89 7.8 46.1 39 -5.3 22.5
13:15 1014 29.94 843 24.89 8 46.5 40 -4.7 23.5
13:20 1014 29.94 843 24.89 8 46.3 40 -4.7 23.5
13:25 1014 29.94 843 24.89 7.8 46 39 -5.2 22.6
13:30 1014 29.94 843 24.89 8.3 46.9 38 -5.1 22.8
13:35 1014 29.94 843 24.89 8.1 46.5 39 -5 22.9
13:40 1014 29.94 843 24.89 7.8 46 40 -4.8 23.3
13:45 1014 29.94 843 24.89 7.3 45.1 42 -4.7 23.6
13:50 1014 29.94 843 24.89 6.8 44.3 43 -4.8 23.3
13:55 1014 29.94 843 24.89 6.8 44.2 43 -4.8 23.4
14:00 1014 29.94 843 24.89 6.9 44.3 43 -4.8 23.4
14:05 1014 29.94 843 24.89 6.9 44.4 42 -5 23.1
14:10 1014 29.94 843 24.89 6.9 44.4 43 -4.9 23.2
14:15 1014 29.94 843 24.89 7 44.6 42 -5.1 22.8
14:20 1014 29.94 843 24.89 7.3 45.1 42 -4.9 23.2
14:25 1014 29.94 843 24.89 7.3 45.1 42 -4.8 23.4
14:30 1014 29.94 843 24.89 7.2 44.9 42 -4.9 23.1
14:35 1014 29.94 843 24.89 7.4 45.3 41 -5 22.9
14:40 1014 29.94 843 24.89 7.5 45.5 41 -5 22.9
14:45 1014 29.94 843 24.89 7.7 45.9 39 -5.4 22.2
14:50 1014 29.94 843 24.89 8.1 46.5 38 -5.5 22.1
14:55 1014 29.94 843 24.89 8.4 47.1 38 -5 23
15:00 1014 29.94 843 24.89 7.9 46.3 39 -5.2 22.6
15:05 1014 29.94 843 24.89 8.2 46.7 38 -5.4 22.3
15:10 1014 29.94 843 24.89 8.2 46.7 38 -5.2 22.7
15:15 1014 29.94 843 24.89 8.1 46.6 37 -5.6 21.9
15:20 1014 29.94 843 24.89 8.2 46.8 38 -5.3 22.4
15:25 1014 29.94 843 24.89 8.2 46.7 37 -5.5 22
15:30 1014 29.94 843 24.89 8.4 47.1 37 -5.5 22.1
15:35 1014 29.94 843 24.89 7.8 46 39 -5.2 22.7
15:40 1014 29.94 843 24.89 7.5 45.4 40 -5.2 22.7
15:45 1014 29.94 843 24.89 7.3 45.1 41 -5.2 22.7
15:50 1014 29.94 843 24.89 7.1 44.8 41 -5.2 22.6
15:55 1014 29.94 843 24.89 7.1 44.7 42 -5.1 22.9
16:00 1014 29.94 843 24.89 7 44.7 42 -5 23
16:05 1014 29.94 843 24.89 7.2 45 41 -5.1 22.7
16:10 1014 29.94 843 24.89 7.5 45.5 41 -5 23
16:15 1014 29.94 843 24.89 7.5 45.4 41 -5 23.1
16:20 1014 29.94 843 24.89 7.6 45.7 40 -5 23
16:25 1014 29.94 843 24.89 7.7 45.9 40 -5 23.1
16:30 1014 29.94 843 24.89 7.6 45.7 40 -5 23
16:35 1014 29.94 843 24.89 7.8 46 40 -4.8 23.3
16:40 1014 29.94 843 24.89 7.4 45.4 42 -4.7 23.5
16:45 1014 29.94 843 24.89 7.2 44.9 43 -4.7 23.5
16:50 1014 29.94 843 24.89 7 44.6 43 -4.7 23.5
16:55 1014 29.94 843 24.89 6.7 44.1 44 -4.6 23.8
17:00 1014 29.94 843 24.89 6.5 43.7 45 -4.6 23.6
17:05 1014 29.94 843 24.89 6.4 43.5 45 -4.6 23.7
17:10 1014 29.94 843 24.89 6.3 43.3 46 -4.6 23.7
17:15 1014 29.94 843 24.89 6.1 43 46 -4.5 23.8
17:20 1014 29.94 843 24.89 6 42.7 47 -4.4 24
17:25 1014 29.94 843 24.89 5.8 42.5 47 -4.5 23.8
17:30 1014 29.94 843 24.89 5.7 42.2 47 -4.7 23.6
17:35 1014 29.94 843 24.89 5.6 42 48 -4.7 23.6
17:40 1014 29.94 843 24.89 5.5 42 48 -4.7 23.6
17:45 1014 29.94 843 24.89 5.5 42 48 -4.7 23.6
17:50 1014 29.94 843 24.89 5.5 41.8 49 -4.4 24.1
17:55 1014 29.94 844 24.92 5.3 41.6 50 -4.3 24.2
18:00 1014 29.94 844 24.92 5.2 41.3 50 -4.4 24
18:05 1014 29.94 844 24.92 5.1 41.2 50 -4.4 24.1
18:10 1015 29.97 844 24.92 5.1 41.2 50 -4.5 23.9
18:15 1015 29.97 844 24.92 5.2 41.3 50 -4.5 23.9
18:20 1015 29.97 844 24.92 5.2 41.3 50 -4.5 23.9
18:25 1015 29.97 844 24.92 5.2 41.4 49 -4.5 23.9
18:30 1015 29.97 844 24.92 5.2 41.4 50 -4.3 24.2
18:35 1015 29.97 844 24.92 5.1 41.1 51 -4.3 24.3
18:40 1015 29.97 844 24.92 4.9 40.9 51 -4.3 24.3
18:45 1015 29.97 844 24.92 4.9 40.9 51 -4.3 24.3
18:50 1015 29.97 844 24.92 5 41.1 51 -4.2 24.5
18:55 1015 29.97 844 24.92 5 41.1 52 -3.9 25
19:00 1015 29.97 844 24.92 4.9 40.8 53 -3.9 25.1
19:05 1015 29.97 844 24.92 4.7 40.5 54 -3.8 25.1
19:10 1015 29.97 844 24.92 4.6 40.2 54 -3.9 25
19:15 1015 29.97 844 24.92 4.5 40.1 54 -4 24.8
19:20 1015 29.97 844 24.92 4.6 40.2 54 -3.9 25
19:25 1015 29.97 844 24.92 4.6 40.3 55 -3.8 25.2
19:30 1015 29.97 844 24.92 4.5 40.1 56 -3.6 25.5
19:35 1015 29.97 844 24.92 4.2 39.6 57 -3.5 25.6
19:40 1015 29.97 844 24.92 4.1 39.4 57 -3.7 25.3
19:45 1015 29.97 844 24.92 4.1 39.4 57 -3.7 25.4
19:50 1015 29.97 844 24.92 4.1 39.4 57 -3.7 25.4
19:55 1015 29.97 844 24.92 4 39.2 57 -3.8 25.2
20:00 1015 29.97 844 24.92 4 39.2 57 -3.9 25
20:05 1015 29.97 844 24.92 4 39.2 56 -3.9 24.9
20:10 1015 29.97 844 24.92 4 39.2 56 -3.9 25
20:15 1015 29.97 844 24.92 3.9 39.1 56 -4 24.8
20:20 1015 29.97 844 24.92 4 39.2 56 -4 24.8
20:25 1015 29.97 844 24.92 4.1 39.4 54 -4.3 24.3
20:30 1015 29.97 844 24.92 4.2 39.6 53 -4.4 24
20:35 1015 29.97 844 24.92 4.3 39.7 54 -4.2 24.4
20:40 1015 29.97 844 24.92 4.2 39.6 54 -4.3 24.2
20:45 1015 29.97 844 24.92 4.2 39.6 53 -4.6 23.6
20:50 1015 29.97 844 24.92 4.2 39.6 53 -4.6 23.8
20:55 1015 29.97 844 24.92 4.1 39.4 53 -4.6 23.7
21:00 1015 29.97 844 24.92 4 39.2 53 -4.7 23.5
21:05 1015 29.97 844 24.92 3.9 39 54 -4.6 23.7
21:10 1015 29.97 844 24.92 3.7 38.6 56 -4.4 24.1
21:15 1015 29.97 844 24.92 3.2 37.8 57 -4.4 24.1
21:20 1015 29.97 844 24.92 2.9 37.2 59 -4.4 24.1
21:25 1015 29.97 844 24.92 2.6 36.7 60 -4.4 24
21:30 1015 29.97 844 24.92 2.2 35.9 62 -4.4 24.1
21:35 1015 29.97 844 24.92 1.8 35.2 63 -4.5 23.8
21:40 1015 29.97 845 24.95 1.7 35.1 61 -5 23
21:45 1015 29.97 845 24.95 2.1 35.8 60 -4.8 23.3
21:50 1015 29.97 845 24.95 2.4 36.4 59 -4.9 23.3
21:55 1015 29.97 845 24.95 2.7 36.9 58 -4.8 23.4
22:00 1015 29.97 845 24.95 3 37.3 57 -4.8 23.4
22:05 1016 30 845 24.95 3.1 37.6 55 -5 23
22:10 1016 30 845 24.95 3.3 37.9 54 -5 22.9
22:15 1016 30 845 24.95 3.3 38 54 -5 23
22:20 1016 30 845 24.95 3.4 38.1 54 -5 22.9
22:25 1016 30 845 24.95 3.4 38 54 -5 23
22:30 1016 30 845 24.95 3.2 37.8 55 -4.9 23.1
22:35 1016 30 845 24.95 3 37.4 56 -4.9 23.1
22:40 1016 30 845 24.95 2.8 37.1 57 -4.9 23.2
22:45 1015 29.97 845 24.95 2.7 36.8 57 -5 23.1
22:50 1015 29.97 845 24.95 2.4 36.3 58 -5.1 22.9
22:55 1015 29.97 845 24.95 2.3 36.2 58 -5.1 22.8
23:00 1015 29.97 845 24.95 2.3 36.1 58 -5.1 22.8
23:05 1015 29.97 844 24.92 2.2 36 57 -5.3 22.4
23:10 1015 29.97 844 24.92 2.3 36.2 57 -5.4 22.4
23:15 1015 29.97 844 24.92 2.4 36.4 56 -5.4 22.2
23:20 1015 29.97 844 24.92 2.5 36.5 56 -5.4 22.2
23:25 1015 29.97 844 24.92 2.7 36.8 55 -5.4 22.3
23:30 1015 29.97 844 24.92 2.8 37 56 -5.2 22.7
23:35 1015 29.97 844 24.92 2.7 36.9 57 -5 23
23:40 1015 29.97 844 24.92 2.6 36.7 58 -4.9 23.1
23:45 1015 29.97 844 24.92 2.5 36.5 58 -5 23
23:50 1015 29.97 844 24.92 2.5 36.5 58 -5 23.1
23:55 1015 29.97 844 24.92 2.5 36.5 58 -5 23
24:00 1015 29.97 844 24.92 2.5 36.5 58 -5 23